sensor_id;sensor_type;location;lat;lon;timestamp;temperature;humidity
11925;DHT22;6022;48.768;18.608;2022-07-22T00:00:38;24.80;75.30
11925;DHT22;6022;48.768;18.608;2022-07-22T00:03:05;25.00;76.10
11925;DHT22;6022;48.768;18.608;2022-07-22T00:05:35;24.90;77.10
11925;DHT22;6022;48.768;18.608;2022-07-22T00:08:03;25.00;78.80
11925;DHT22;6022;48.768;18.608;2022-07-22T00:10:31;24.80;79.50
11925;DHT22;6022;48.768;18.608;2022-07-22T00:12:59;24.80;81.40
11925;DHT22;6022;48.768;18.608;2022-07-22T00:15:27;24.70;81.80
11925;DHT22;6022;48.768;18.608;2022-07-22T00:17:56;24.70;83.20
11925;DHT22;6022;48.768;18.608;2022-07-22T00:20:23;24.70;84.00
11925;DHT22;6022;48.768;18.608;2022-07-22T00:22:51;24.50;85.60
11925;DHT22;6022;48.768;18.608;2022-07-22T00:25:18;24.40;86.60
11925;DHT22;6022;48.768;18.608;2022-07-22T00:27:46;24.40;88.10
11925;DHT22;6022;48.768;18.608;2022-07-22T00:30:14;24.00;87.10
11925;DHT22;6022;48.768;18.608;2022-07-22T00:32:42;24.20;87.90
11925;DHT22;6022;48.768;18.608;2022-07-22T00:35:09;24.00;90.00
11925;DHT22;6022;48.768;18.608;2022-07-22T00:37:37;24.00;90.40
11925;DHT22;6022;48.768;18.608;2022-07-22T00:40:06;23.80;93.00
11925;DHT22;6022;48.768;18.608;2022-07-22T00:42:34;23.70;93.40
11925;DHT22;6022;48.768;18.608;2022-07-22T00:45:03;23.70;94.60
11925;DHT22;6022;48.768;18.608;2022-07-22T00:47:31;23.60;95.30
11925;DHT22;6022;48.768;18.608;2022-07-22T00:49:59;23.60;95.60
11925;DHT22;6022;48.768;18.608;2022-07-22T00:52:27;23.60;95.40
11925;DHT22;6022;48.768;18.608;2022-07-22T00:54:55;23.60;95.40
11925;DHT22;6022;48.768;18.608;2022-07-22T00:57:23;23.30;96.00
11925;DHT22;6022;48.768;18.608;2022-07-22T00:59:50;23.30;95.90
11925;DHT22;6022;48.768;18.608;2022-07-22T01:02:18;23.50;95.80
11925;DHT22;6022;48.768;18.608;2022-07-22T01:04:45;23.40;95.90
11925;DHT22;6022;48.768;18.608;2022-07-22T01:07:14;23.30;96.20
11925;DHT22;6022;48.768;18.608;2022-07-22T01:09:46;23.40;96.90
11925;DHT22;6022;48.768;18.608;2022-07-22T01:12:13;23.40;96.60
11925;DHT22;6022;48.768;18.608;2022-07-22T01:14:41;23.40;96.80
11925;DHT22;6022;48.768;18.608;2022-07-22T01:17:08;23.00;97.60
11925;DHT22;6022;48.768;18.608;2022-07-22T01:19:36;23.10;96.40
11925;DHT22;6022;48.768;18.608;2022-07-22T01:22:05;23.00;96.50
11925;DHT22;6022;48.768;18.608;2022-07-22T01:24:33;23.00;96.80
11925;DHT22;6022;48.768;18.608;2022-07-22T01:27:01;23.00;98.20
11925;DHT22;6022;48.768;18.608;2022-07-22T01:29:29;23.00;99.10
11925;DHT22;6022;48.768;18.608;2022-07-22T01:31:56;23.10;99.30
11925;DHT22;6022;48.768;18.608;2022-07-22T01:34:24;22.90;99.80
11925;DHT22;6022;48.768;18.608;2022-07-22T01:36:52;22.90;99.90
11925;DHT22;6022;48.768;18.608;2022-07-22T01:39:20;22.90;99.90
11925;DHT22;6022;48.768;18.608;2022-07-22T01:41:47;23.00;99.90
11925;DHT22;6022;48.768;18.608;2022-07-22T01:44:15;22.90;99.90
11925;DHT22;6022;48.768;18.608;2022-07-22T01:46:42;22.90;99.90
11925;DHT22;6022;48.768;18.608;2022-07-22T01:49:11;22.80;99.90
11925;DHT22;6022;48.768;18.608;2022-07-22T01:51:39;22.80;99.90
11925;DHT22;6022;48.768;18.608;2022-07-22T01:54:07;22.80;99.90
11925;DHT22;6022;48.768;18.608;2022-07-22T01:56:34;22.80;99.90
11925;DHT22;6022;48.768;18.608;2022-07-22T01:59:02;22.80;99.90
11925;DHT22;6022;48.768;18.608;2022-07-22T02:01:29;22.80;99.90
11925;DHT22;6022;48.768;18.608;2022-07-22T02:03:57;22.70;99.90
11925;DHT22;6022;48.768;18.608;2022-07-22T02:06:24;22.70;99.90
11925;DHT22;6022;48.768;18.608;2022-07-22T02:08:52;22.70;99.90
11925;DHT22;6022;48.768;18.608;2022-07-22T02:11:20;22.40;99.90
11925;DHT22;6022;48.768;18.608;2022-07-22T02:13:48;22.30;99.90
11925;DHT22;6022;48.768;18.608;2022-07-22T02:16:16;22.20;99.90
11925;DHT22;6022;48.768;18.608;2022-07-22T02:18:46;22.20;99.90
11925;DHT22;6022;48.768;18.608;2022-07-22T02:21:14;22.00;99.90
11925;DHT22;6022;48.768;18.608;2022-07-22T02:23:42;22.10;99.90
11925;DHT22;6022;48.768;18.608;2022-07-22T02:26:09;22.10;99.90
11925;DHT22;6022;48.768;18.608;2022-07-22T02:28:37;22.10;99.90
11925;DHT22;6022;48.768;18.608;2022-07-22T02:31:05;22.20;99.90
11925;DHT22;6022;48.768;18.608;2022-07-22T02:33:32;22.00;99.90
11925;DHT22;6022;48.768;18.608;2022-07-22T02:36:00;22.20;99.90
11925;DHT22;6022;48.768;18.608;2022-07-22T02:38:30;22.10;99.90
11925;DHT22;6022;48.768;18.608;2022-07-22T02:40:58;22.40;99.90
11925;DHT22;6022;48.768;18.608;2022-07-22T02:43:26;22.10;99.90
11925;DHT22;6022;48.768;18.608;2022-07-22T02:45:54;22.20;99.90
11925;DHT22;6022;48.768;18.608;2022-07-22T02:48:21;22.20;99.90
11925;DHT22;6022;48.768;18.608;2022-07-22T02:50:49;22.10;99.90
11925;DHT22;6022;48.768;18.608;2022-07-22T02:53:16;22.00;99.90
11925;DHT22;6022;48.768;18.608;2022-07-22T02:55:45;21.90;99.90
11925;DHT22;6022;48.768;18.608;2022-07-22T02:58:15;21.90;99.90
11925;DHT22;6022;48.768;18.608;2022-07-22T03:00:43;21.90;99.90
11925;DHT22;6022;48.768;18.608;2022-07-22T03:03:11;21.80;99.90
11925;DHT22;6022;48.768;18.608;2022-07-22T03:05:39;21.60;99.90
11925;DHT22;6022;48.768;18.608;2022-07-22T03:08:06;21.60;99.90
11925;DHT22;6022;48.768;18.608;2022-07-22T03:10:34;21.60;99.90
11925;DHT22;6022;48.768;18.608;2022-07-22T03:13:01;21.60;99.90
11925;DHT22;6022;48.768;18.608;2022-07-22T03:15:29;21.50;99.90
11925;DHT22;6022;48.768;18.608;2022-07-22T03:17:56;21.60;99.90
11925;DHT22;6022;48.768;18.608;2022-07-22T03:20:24;21.60;99.90
11925;DHT22;6022;48.768;18.608;2022-07-22T03:22:51;21.70;99.90
11925;DHT22;6022;48.768;18.608;2022-07-22T03:25:19;21.80;99.90
11925;DHT22;6022;48.768;18.608;2022-07-22T03:27:47;21.80;99.90
11925;DHT22;6022;48.768;18.608;2022-07-22T03:30:16;21.70;99.90
11925;DHT22;6022;48.768;18.608;2022-07-22T03:32:44;21.70;99.90
11925;DHT22;6022;48.768;18.608;2022-07-22T03:35:17;21.70;99.90
11925;DHT22;6022;48.768;18.608;2022-07-22T03:37:46;21.80;99.90
11925;DHT22;6022;48.768;18.608;2022-07-22T03:40:14;21.90;99.90
11925;DHT22;6022;48.768;18.608;2022-07-22T03:42:42;21.90;99.90
11925;DHT22;6022;48.768;18.608;2022-07-22T03:45:12;22.00;99.90
11925;DHT22;6022;48.768;18.608;2022-07-22T03:47:40;22.10;99.90
11925;DHT22;6022;48.768;18.608;2022-07-22T03:50:09;22.20;99.90
11925;DHT22;6022;48.768;18.608;2022-07-22T03:52:37;22.10;99.90
11925;DHT22;6022;48.768;18.608;2022-07-22T03:55:05;22.20;99.90
11925;DHT22;6022;48.768;18.608;2022-07-22T03:57:33;22.40;99.90
11925;DHT22;6022;48.768;18.608;2022-07-22T04:00:00;22.40;99.90
11925;DHT22;6022;48.768;18.608;2022-07-22T04:02:28;22.50;99.90
11925;DHT22;6022;48.768;18.608;2022-07-22T04:04:56;22.40;99.90
11925;DHT22;6022;48.768;18.608;2022-07-22T04:07:25;22.40;99.90
11925;DHT22;6022;48.768;18.608;2022-07-22T04:09:52;22.30;99.90
11925;DHT22;6022;48.768;18.608;2022-07-22T04:12:35;22.10;99.90
11925;DHT22;6022;48.768;18.608;2022-07-22T04:15:05;22.30;99.90
11925;DHT22;6022;48.768;18.608;2022-07-22T04:17:34;21.90;99.90
11925;DHT22;6022;48.768;18.608;2022-07-22T04:20:02;22.20;99.90
11925;DHT22;6022;48.768;18.608;2022-07-22T04:22:31;22.30;99.90
11925;DHT22;6022;48.768;18.608;2022-07-22T04:24:58;22.40;99.90
11925;DHT22;6022;48.768;18.608;2022-07-22T04:27:26;22.30;99.90
11925;DHT22;6022;48.768;18.608;2022-07-22T04:29:54;22.70;99.90
11925;DHT22;6022;48.768;18.608;2022-07-22T04:32:22;22.50;99.90
11925;DHT22;6022;48.768;18.608;2022-07-22T04:34:49;22.60;99.90
11925;DHT22;6022;48.768;18.608;2022-07-22T04:37:17;23.20;99.90
11925;DHT22;6022;48.768;18.608;2022-07-22T04:39:45;23.10;99.90
11925;DHT22;6022;48.768;18.608;2022-07-22T04:42:12;23.10;99.90
11925;DHT22;6022;48.768;18.608;2022-07-22T04:44:40;23.20;99.90
11925;DHT22;6022;48.768;18.608;2022-07-22T04:47:07;23.60;99.90
11925;DHT22;6022;48.768;18.608;2022-07-22T04:49:35;23.60;99.90
11925;DHT22;6022;48.768;18.608;2022-07-22T04:52:03;23.90;99.90
11925;DHT22;6022;48.768;18.608;2022-07-22T04:54:31;24.40;99.90
11925;DHT22;6022;48.768;18.608;2022-07-22T04:56:58;24.40;99.90
11925;DHT22;6022;48.768;18.608;2022-07-22T04:59:26;24.70;99.90
11925;DHT22;6022;48.768;18.608;2022-07-22T05:01:55;25.00;99.90
11925;DHT22;6022;48.768;18.608;2022-07-22T05:04:23;25.40;99.90
11925;DHT22;6022;48.768;18.608;2022-07-22T05:06:52;25.50;99.90
11925;DHT22;6022;48.768;18.608;2022-07-22T05:09:19;25.20;99.90
11925;DHT22;6022;48.768;18.608;2022-07-22T05:11:47;25.40;99.90
11925;DHT22;6022;48.768;18.608;2022-07-22T05:14:14;25.50;99.90
11925;DHT22;6022;48.768;18.608;2022-07-22T05:16:42;26.00;99.90
11925;DHT22;6022;48.768;18.608;2022-07-22T05:19:09;26.30;99.90
11925;DHT22;6022;48.768;18.608;2022-07-22T05:21:37;27.00;99.90
11925;DHT22;6022;48.768;18.608;2022-07-22T05:24:05;28.00;97.90
11925;DHT22;6022;48.768;18.608;2022-07-22T05:26:32;28.10;98.10
11925;DHT22;6022;48.768;18.608;2022-07-22T05:29:01;28.80;95.70
11925;DHT22;6022;48.768;18.608;2022-07-22T05:31:28;29.10;93.90
11925;DHT22;6022;48.768;18.608;2022-07-22T05:33:56;29.70;92.50
11925;DHT22;6022;48.768;18.608;2022-07-22T05:36:26;30.10;90.80
11925;DHT22;6022;48.768;18.608;2022-07-22T05:38:53;30.20;88.60
11925;DHT22;6022;48.768;18.608;2022-07-22T05:41:22;30.30;85.00
11925;DHT22;6022;48.768;18.608;2022-07-22T05:43:50;30.20;83.80
11925;DHT22;6022;48.768;18.608;2022-07-22T05:46:17;30.40;84.40
11925;DHT22;6022;48.768;18.608;2022-07-22T05:48:45;30.50;84.00
11925;DHT22;6022;48.768;18.608;2022-07-22T05:51:13;30.60;83.40
11925;DHT22;6022;48.768;18.608;2022-07-22T05:53:42;31.00;81.50
11925;DHT22;6022;48.768;18.608;2022-07-22T05:56:12;31.40;79.80
11925;DHT22;6022;48.768;18.608;2022-07-22T05:58:42;31.60;77.40
11925;DHT22;6022;48.768;18.608;2022-07-22T06:01:11;32.00;73.70
11925;DHT22;6022;48.768;18.608;2022-07-22T06:03:39;32.10;72.70
11925;DHT22;6022;48.768;18.608;2022-07-22T06:06:07;32.40;70.90
11925;DHT22;6022;48.768;18.608;2022-07-22T06:08:37;32.80;69.20
11925;DHT22;6022;48.768;18.608;2022-07-22T06:11:07;33.10;65.90
11925;DHT22;6022;48.768;18.608;2022-07-22T06:13:35;33.20;64.80
11925;DHT22;6022;48.768;18.608;2022-07-22T06:16:06;33.60;61.60
11925;DHT22;6022;48.768;18.608;2022-07-22T06:18:34;33.80;60.10
11925;DHT22;6022;48.768;18.608;2022-07-22T06:21:04;34.20;59.30
11925;DHT22;6022;48.768;18.608;2022-07-22T06:23:37;34.60;56.20
11925;DHT22;6022;48.768;18.608;2022-07-22T06:26:04;34.80;53.40
11925;DHT22;6022;48.768;18.608;2022-07-22T06:28:33;35.10;50.90
11925;DHT22;6022;48.768;18.608;2022-07-22T06:31:00;35.10;49.50
11925;DHT22;6022;48.768;18.608;2022-07-22T06:33:30;35.30;49.20
11925;DHT22;6022;48.768;18.608;2022-07-22T06:36:01;35.40;48.50
11925;DHT22;6022;48.768;18.608;2022-07-22T06:38:32;36.00;47.80
11925;DHT22;6022;48.768;18.608;2022-07-22T06:41:07;36.40;46.50
11925;DHT22;6022;48.768;18.608;2022-07-22T06:43:35;36.50;46.40
11925;DHT22;6022;48.768;18.608;2022-07-22T06:46:02;36.40;46.30
11925;DHT22;6022;48.768;18.608;2022-07-22T06:48:31;36.40;46.00
11925;DHT22;6022;48.768;18.608;2022-07-22T06:50:59;36.20;45.10
11925;DHT22;6022;48.768;18.608;2022-07-22T06:53:26;36.50;44.20
11925;DHT22;6022;48.768;18.608;2022-07-22T06:55:54;37.00;42.30
11925;DHT22;6022;48.768;18.608;2022-07-22T06:58:21;36.90;41.50
11925;DHT22;6022;48.768;18.608;2022-07-22T07:00:49;37.00;41.50
11925;DHT22;6022;48.768;18.608;2022-07-22T07:03:16;37.40;41.00
11925;DHT22;6022;48.768;18.608;2022-07-22T07:06:01;38.00;40.40
11925;DHT22;6022;48.768;18.608;2022-07-22T07:08:30;38.70;38.70
11925;DHT22;6022;48.768;18.608;2022-07-22T07:10:57;38.90;36.00
11925;DHT22;6022;48.768;18.608;2022-07-22T07:13:27;39.00;35.20
11925;DHT22;6022;48.768;18.608;2022-07-22T07:15:55;39.10;35.10
11925;DHT22;6022;48.768;18.608;2022-07-22T07:18:23;40.10;33.60
11925;DHT22;6022;48.768;18.608;2022-07-22T07:20:51;39.90;32.90
11925;DHT22;6022;48.768;18.608;2022-07-22T07:23:19;39.60;33.00
11925;DHT22;6022;48.768;18.608;2022-07-22T07:25:47;39.90;33.30
11925;DHT22;6022;48.768;18.608;2022-07-22T07:28:15;40.10;31.80
11925;DHT22;6022;48.768;18.608;2022-07-22T07:30:46;39.20;32.20
11925;DHT22;6022;48.768;18.608;2022-07-22T07:33:14;38.60;33.60
11925;DHT22;6022;48.768;18.608;2022-07-22T07:35:43;38.80;34.10
11925;DHT22;6022;48.768;18.608;2022-07-22T07:38:11;39.70;32.70
11925;DHT22;6022;48.768;18.608;2022-07-22T07:40:38;40.40;32.40
11925;DHT22;6022;48.768;18.608;2022-07-22T07:43:08;41.10;30.90
11925;DHT22;6022;48.768;18.608;2022-07-22T07:45:36;41.60;29.70
11925;DHT22;6022;48.768;18.608;2022-07-22T07:48:05;41.90;29.00
11925;DHT22;6022;48.768;18.608;2022-07-22T07:50:33;41.60;28.90
11925;DHT22;6022;48.768;18.608;2022-07-22T07:53:01;41.10;28.90
11925;DHT22;6022;48.768;18.608;2022-07-22T07:55:28;41.00;29.20
11925;DHT22;6022;48.768;18.608;2022-07-22T07:57:55;41.00;29.00
11925;DHT22;6022;48.768;18.608;2022-07-22T08:00:24;41.60;28.70
11925;DHT22;6022;48.768;18.608;2022-07-22T08:03:02;41.70;27.90
11925;DHT22;6022;48.768;18.608;2022-07-22T08:05:32;41.20;28.50
11925;DHT22;6022;48.768;18.608;2022-07-22T08:08:01;41.00;28.70
11925;DHT22;6022;48.768;18.608;2022-07-22T08:10:36;41.30;28.60
11925;DHT22;6022;48.768;18.608;2022-07-22T08:13:25;41.10;28.40
11925;DHT22;6022;48.768;18.608;2022-07-22T08:15:53;41.40;28.20
11925;DHT22;6022;48.768;18.608;2022-07-22T08:18:21;42.10;27.80
11925;DHT22;6022;48.768;18.608;2022-07-22T08:20:51;42.60;27.50
11925;DHT22;6022;48.768;18.608;2022-07-22T08:23:19;43.50;26.70
11925;DHT22;6022;48.768;18.608;2022-07-22T08:25:47;44.20;25.80
11925;DHT22;6022;48.768;18.608;2022-07-22T08:28:14;44.10;25.90
11925;DHT22;6022;48.768;18.608;2022-07-22T08:30:44;43.50;26.20
11925;DHT22;6022;48.768;18.608;2022-07-22T08:33:12;43.40;26.40
11925;DHT22;6022;48.768;18.608;2022-07-22T08:35:39;43.70;25.40
11925;DHT22;6022;48.768;18.608;2022-07-22T08:38:07;43.70;25.40
11925;DHT22;6022;48.768;18.608;2022-07-22T08:40:34;43.70;25.70
11925;DHT22;6022;48.768;18.608;2022-07-22T08:43:03;44.20;26.00
11925;DHT22;6022;48.768;18.608;2022-07-22T08:45:31;44.10;25.00
11925;DHT22;6022;48.768;18.608;2022-07-22T08:47:59;43.90;25.60
11925;DHT22;6022;48.768;18.608;2022-07-22T08:50:30;44.00;25.30
11925;DHT22;6022;48.768;18.608;2022-07-22T08:52:58;44.60;25.10
11925;DHT22;6022;48.768;18.608;2022-07-22T08:55:25;44.80;24.70
11925;DHT22;6022;48.768;18.608;2022-07-22T08:57:55;44.80;25.00
11925;DHT22;6022;48.768;18.608;2022-07-22T09:00:22;44.90;24.40
11925;DHT22;6022;48.768;18.608;2022-07-22T09:02:50;44.50;24.30
11925;DHT22;6022;48.768;18.608;2022-07-22T09:05:18;44.40;24.30
11925;DHT22;6022;48.768;18.608;2022-07-22T09:08:06;44.90;24.60
11925;DHT22;6022;48.768;18.608;2022-07-22T09:10:35;45.20;23.90
11925;DHT22;6022;48.768;18.608;2022-07-22T09:13:08;45.40;23.50
11925;DHT22;6022;48.768;18.608;2022-07-22T09:15:39;44.90;23.20
11925;DHT22;6022;48.768;18.608;2022-07-22T09:18:13;44.90;23.50
11925;DHT22;6022;48.768;18.608;2022-07-22T09:20:40;44.60;23.80
11925;DHT22;6022;48.768;18.608;2022-07-22T09:23:12;44.80;23.80
11925;DHT22;6022;48.768;18.608;2022-07-22T09:25:42;45.20;23.90
11925;DHT22;6022;48.768;18.608;2022-07-22T09:28:14;45.40;23.50
11925;DHT22;6022;48.768;18.608;2022-07-22T09:30:51;45.30;23.10
11925;DHT22;6022;48.768;18.608;2022-07-22T09:33:23;45.20;23.50
11925;DHT22;6022;48.768;18.608;2022-07-22T09:35:52;46.20;23.20
11925;DHT22;6022;48.768;18.608;2022-07-22T09:38:30;46.40;22.40
11925;DHT22;6022;48.768;18.608;2022-07-22T09:40:59;45.80;22.40
11925;DHT22;6022;48.768;18.608;2022-07-22T09:43:27;45.70;22.20
11925;DHT22;6022;48.768;18.608;2022-07-22T09:46:00;45.30;22.70
11925;DHT22;6022;48.768;18.608;2022-07-22T09:48:27;45.30;22.70
11925;DHT22;6022;48.768;18.608;2022-07-22T09:50:57;45.40;22.90
11925;DHT22;6022;48.768;18.608;2022-07-22T09:53:27;46.00;22.30
11925;DHT22;6022;48.768;18.608;2022-07-22T09:55:57;46.30;22.80
11925;DHT22;6022;48.768;18.608;2022-07-22T09:58:28;46.00;22.60
11925;DHT22;6022;48.768;18.608;2022-07-22T10:00:59;46.10;22.20
11925;DHT22;6022;48.768;18.608;2022-07-22T10:03:35;45.90;22.50
11925;DHT22;6022;48.768;18.608;2022-07-22T10:06:07;46.30;22.50
11925;DHT22;6022;48.768;18.608;2022-07-22T10:08:37;45.90;22.50
11925;DHT22;6022;48.768;18.608;2022-07-22T10:11:06;45.60;23.10
11925;DHT22;6022;48.768;18.608;2022-07-22T10:13:34;45.50;23.20
11925;DHT22;6022;48.768;18.608;2022-07-22T10:16:04;45.60;23.20
11925;DHT22;6022;48.768;18.608;2022-07-22T10:18:33;45.50;23.20
11925;DHT22;6022;48.768;18.608;2022-07-22T10:21:06;45.00;23.00
11925;DHT22;6022;48.768;18.608;2022-07-22T10:23:36;45.20;23.40
11925;DHT22;6022;48.768;18.608;2022-07-22T10:29:41;45.20;22.70
11925;DHT22;6022;48.768;18.608;2022-07-22T10:37:41;44.30;23.10
11925;DHT22;6022;48.768;18.608;2022-07-22T10:40:17;44.50;23.20
11925;DHT22;6022;48.768;18.608;2022-07-22T10:43:03;44.40;23.10
11925;DHT22;6022;48.768;18.608;2022-07-22T10:45:33;44.30;23.20
11925;DHT22;6022;48.768;18.608;2022-07-22T10:48:06;44.10;23.00
11925;DHT22;6022;48.768;18.608;2022-07-22T10:53:11;43.70;23.50
11925;DHT22;6022;48.768;18.608;2022-07-22T10:55:58;43.60;23.20
11925;DHT22;6022;48.768;18.608;2022-07-22T11:01:07;43.70;23.10
11925;DHT22;6022;48.768;18.608;2022-07-22T11:03:39;43.80;22.80
11925;DHT22;6022;48.768;18.608;2022-07-22T11:06:26;43.50;23.30
11925;DHT22;6022;48.768;18.608;2022-07-22T11:09:09;43.60;22.70
11925;DHT22;6022;48.768;18.608;2022-07-22T11:11:42;43.50;23.90
11925;DHT22;6022;48.768;18.608;2022-07-22T11:17:08;43.60;22.80
11925;DHT22;6022;48.768;18.608;2022-07-22T11:19:39;43.60;23.00
11925;DHT22;6022;48.768;18.608;2022-07-22T11:22:08;43.50;22.40
11925;DHT22;6022;48.768;18.608;2022-07-22T11:24:41;43.40;22.70
11925;DHT22;6022;48.768;18.608;2022-07-22T11:27:16;43.10;22.70
11925;DHT22;6022;48.768;18.608;2022-07-22T11:29:48;43.10;23.10
11925;DHT22;6022;48.768;18.608;2022-07-22T11:32:19;43.40;22.40
11925;DHT22;6022;48.768;18.608;2022-07-22T11:34:55;43.40;22.10
11925;DHT22;6022;48.768;18.608;2022-07-22T11:37:24;43.10;22.20
11925;DHT22;6022;48.768;18.608;2022-07-22T11:40:03;43.10;21.90
11925;DHT22;6022;48.768;18.608;2022-07-22T11:42:32;43.00;22.50
11925;DHT22;6022;48.768;18.608;2022-07-22T11:45:00;43.20;22.70
11925;DHT22;6022;48.768;18.608;2022-07-22T11:47:28;43.30;22.50
11925;DHT22;6022;48.768;18.608;2022-07-22T11:49:55;43.40;21.60
11925;DHT22;6022;48.768;18.608;2022-07-22T11:52:23;43.50;21.30
11925;DHT22;6022;48.768;18.608;2022-07-22T11:54:50;43.10;20.90
11925;DHT22;6022;48.768;18.608;2022-07-22T11:57:17;43.20;22.10
11925;DHT22;6022;48.768;18.608;2022-07-22T11:59:44;43.30;21.00
11925;DHT22;6022;48.768;18.608;2022-07-22T12:02:13;43.20;21.90
11925;DHT22;6022;48.768;18.608;2022-07-22T12:04:42;42.80;21.90
11925;DHT22;6022;48.768;18.608;2022-07-22T12:07:14;42.80;21.60
11925;DHT22;6022;48.768;18.608;2022-07-22T12:09:43;42.70;21.60
11925;DHT22;6022;48.768;18.608;2022-07-22T12:12:13;42.80;22.00
11925;DHT22;6022;48.768;18.608;2022-07-22T12:14:46;42.60;21.40
11925;DHT22;6022;48.768;18.608;2022-07-22T12:17:15;42.20;21.60
11925;DHT22;6022;48.768;18.608;2022-07-22T12:19:43;42.00;21.20
11925;DHT22;6022;48.768;18.608;2022-07-22T12:22:19;41.90;21.40
11925;DHT22;6022;48.768;18.608;2022-07-22T12:25:01;41.90;21.30
11925;DHT22;6022;48.768;18.608;2022-07-22T12:27:29;41.90;21.70
11925;DHT22;6022;48.768;18.608;2022-07-22T12:29:57;41.60;22.30
11925;DHT22;6022;48.768;18.608;2022-07-22T12:32:26;41.60;23.10
11925;DHT22;6022;48.768;18.608;2022-07-22T12:35:00;41.90;22.20
11925;DHT22;6022;48.768;18.608;2022-07-22T12:37:42;42.00;21.70
11925;DHT22;6022;48.768;18.608;2022-07-22T12:40:20;42.10;22.00
11925;DHT22;6022;48.768;18.608;2022-07-22T12:45:36;41.90;22.50
11925;DHT22;6022;48.768;18.608;2022-07-22T12:48:07;41.70;22.70
11925;DHT22;6022;48.768;18.608;2022-07-22T12:50:39;41.70;22.70
11925;DHT22;6022;48.768;18.608;2022-07-22T12:53:10;41.40;23.00
11925;DHT22;6022;48.768;18.608;2022-07-22T12:55:57;41.00;23.10
11925;DHT22;6022;48.768;18.608;2022-07-22T12:58:30;40.60;22.90
11925;DHT22;6022;48.768;18.608;2022-07-22T13:01:00;40.30;23.60
11925;DHT22;6022;48.768;18.608;2022-07-22T13:03:31;39.90;23.50
11925;DHT22;6022;48.768;18.608;2022-07-22T13:06:03;39.70;24.30
11925;DHT22;6022;48.768;18.608;2022-07-22T13:08:34;39.50;24.00
11925;DHT22;6022;48.768;18.608;2022-07-22T13:11:11;39.40;24.50
11925;DHT22;6022;48.768;18.608;2022-07-22T13:13:40;39.40;24.60
11925;DHT22;6022;48.768;18.608;2022-07-22T13:16:12;39.20;24.50
11925;DHT22;6022;48.768;18.608;2022-07-22T13:18:42;39.10;24.40
11925;DHT22;6022;48.768;18.608;2022-07-22T13:21:09;39.10;24.10
11925;DHT22;6022;48.768;18.608;2022-07-22T13:23:39;38.90;24.20
11925;DHT22;6022;48.768;18.608;2022-07-22T13:26:06;38.80;24.50
11925;DHT22;6022;48.768;18.608;2022-07-22T13:28:35;38.70;24.60
11925;DHT22;6022;48.768;18.608;2022-07-22T13:31:03;38.70;25.20
11925;DHT22;6022;48.768;18.608;2022-07-22T13:33:30;38.80;24.90
11925;DHT22;6022;48.768;18.608;2022-07-22T13:35:58;38.70;25.10
11925;DHT22;6022;48.768;18.608;2022-07-22T13:38:25;38.80;25.60
11925;DHT22;6022;48.768;18.608;2022-07-22T13:40:53;38.70;25.20
11925;DHT22;6022;48.768;18.608;2022-07-22T13:43:24;38.50;25.10
11925;DHT22;6022;48.768;18.608;2022-07-22T13:45:52;38.40;24.60
11925;DHT22;6022;48.768;18.608;2022-07-22T13:48:22;38.40;24.60
11925;DHT22;6022;48.768;18.608;2022-07-22T13:50:50;38.40;25.10
11925;DHT22;6022;48.768;18.608;2022-07-22T13:53:17;38.30;25.40
11925;DHT22;6022;48.768;18.608;2022-07-22T13:55:44;38.30;25.60
11925;DHT22;6022;48.768;18.608;2022-07-22T13:58:12;38.30;24.20
11925;DHT22;6022;48.768;18.608;2022-07-22T14:00:40;38.20;24.70
11925;DHT22;6022;48.768;18.608;2022-07-22T14:03:08;38.10;25.50
11925;DHT22;6022;48.768;18.608;2022-07-22T14:05:36;38.20;25.10
11925;DHT22;6022;48.768;18.608;2022-07-22T14:08:03;38.00;25.40
11925;DHT22;6022;48.768;18.608;2022-07-22T14:10:31;37.90;25.90
11925;DHT22;6022;48.768;18.608;2022-07-22T14:12:59;37.80;25.40
11925;DHT22;6022;48.768;18.608;2022-07-22T14:15:26;37.70;25.30
11925;DHT22;6022;48.768;18.608;2022-07-22T14:17:55;37.80;25.70
11925;DHT22;6022;48.768;18.608;2022-07-22T14:20:23;37.70;25.60
11925;DHT22;6022;48.768;18.608;2022-07-22T14:22:51;37.60;25.60
11925;DHT22;6022;48.768;18.608;2022-07-22T14:25:18;37.50;25.90
11925;DHT22;6022;48.768;18.608;2022-07-22T14:27:47;37.40;26.20
11925;DHT22;6022;48.768;18.608;2022-07-22T14:30:31;37.50;26.90
11925;DHT22;6022;48.768;18.608;2022-07-22T14:32:59;37.60;26.60
11925;DHT22;6022;48.768;18.608;2022-07-22T14:35:27;37.50;26.30
11925;DHT22;6022;48.768;18.608;2022-07-22T14:37:56;37.40;25.90
11925;DHT22;6022;48.768;18.608;2022-07-22T14:40:23;37.40;26.40
11925;DHT22;6022;48.768;18.608;2022-07-22T14:42:52;37.30;26.60
11925;DHT22;6022;48.768;18.608;2022-07-22T14:45:40;37.10;26.80
11925;DHT22;6022;48.768;18.608;2022-07-22T14:48:07;37.10;27.40
11925;DHT22;6022;48.768;18.608;2022-07-22T14:50:35;37.10;27.60
11925;DHT22;6022;48.768;18.608;2022-07-22T14:53:02;37.00;27.50
11925;DHT22;6022;48.768;18.608;2022-07-22T14:55:30;36.90;27.70
11925;DHT22;6022;48.768;18.608;2022-07-22T14:57:57;36.90;28.00
11925;DHT22;6022;48.768;18.608;2022-07-22T15:00:25;36.90;28.50
11925;DHT22;6022;48.768;18.608;2022-07-22T15:02:52;36.90;28.40
11925;DHT22;6022;48.768;18.608;2022-07-22T15:05:19;36.90;28.60
11925;DHT22;6022;48.768;18.608;2022-07-22T15:07:47;36.70;29.30
11925;DHT22;6022;48.768;18.608;2022-07-22T15:10:15;36.40;28.60
11925;DHT22;6022;48.768;18.608;2022-07-22T15:12:42;36.30;28.30
11925;DHT22;6022;48.768;18.608;2022-07-22T15:15:15;36.30;28.70
11925;DHT22;6022;48.768;18.608;2022-07-22T15:17:43;36.20;28.50
11925;DHT22;6022;48.768;18.608;2022-07-22T15:20:13;36.30;28.70
11925;DHT22;6022;48.768;18.608;2022-07-22T15:22:41;36.30;28.40
11925;DHT22;6022;48.768;18.608;2022-07-22T15:25:08;36.30;28.40
11925;DHT22;6022;48.768;18.608;2022-07-22T15:27:37;36.20;28.20
11925;DHT22;6022;48.768;18.608;2022-07-22T15:30:06;36.20;28.30
11925;DHT22;6022;48.768;18.608;2022-07-22T15:32:36;36.00;27.90
11925;DHT22;6022;48.768;18.608;2022-07-22T15:35:07;36.20;28.50
11925;DHT22;6022;48.768;18.608;2022-07-22T15:37:35;36.10;28.60
11925;DHT22;6022;48.768;18.608;2022-07-22T15:40:06;36.10;28.90
11925;DHT22;6022;48.768;18.608;2022-07-22T15:42:35;36.10;29.00
11925;DHT22;6022;48.768;18.608;2022-07-22T15:45:04;36.00;28.80
11925;DHT22;6022;48.768;18.608;2022-07-22T15:47:32;35.90;28.90
11925;DHT22;6022;48.768;18.608;2022-07-22T15:50:00;35.60;28.20
11925;DHT22;6022;48.768;18.608;2022-07-22T15:52:28;35.80;28.40
11925;DHT22;6022;48.768;18.608;2022-07-22T15:54:55;35.80;29.00
11925;DHT22;6022;48.768;18.608;2022-07-22T15:57:22;35.80;29.00
11925;DHT22;6022;48.768;18.608;2022-07-22T16:00:08;35.60;28.80
11925;DHT22;6022;48.768;18.608;2022-07-22T16:02:36;35.50;29.30